»·PEaware :: N3891R KSMO-KBFL

N3891R :: KSMO-KBFL

FLIGHT INFORMATION

Flight Status: Arrived
Operator: Privately registered:
United States
More flights under this callsign
Pilot: Markus B. (22479)
Aircraft: BEECH AIRCRAFT BARON
(BE58)
More flights by this aircraft type
Origin: KSMO Santa Monica Mun
United States
Destination: KBFL Meadows
United States
More flights between these airports :: More routes between these airports
Route: +SMO FIM GMN FASTO2
File this flight plan on PilotEdge
Remarks:
Altitude:
(Current/Filed)
9,500ft
Speed:
(Current/Filed)
170kts
Departed: 07-Jul-19 02:47 PM
Arrived: 07-Jul-19 03:28 PM
Distance/Time
Traveled:
91nm/0:41
Distance/Time
To Go:
Arrived

Flight Plot

Page will automatically refresh every two minutes.

Flight plan parsing failed; only flown route is shown


Map Options




Map Legend


Flown Route
Filed Route
Departure Airport
Arrival Airport
Navaid (VOR, NDB)
Fix

Horizontal Profiles

Position Reports

Time Latitude Longitude Heading Altitude Ground
Speed
07-Jul-19 14:11 34.015869 -118.453021 216 179ft 0kts
07-Jul-19 14:12 34.015869 -118.453021 216 179ft 0kts
07-Jul-19 14:13 34.015869 -118.453021 216 179ft 0kts
07-Jul-19 14:14 34.015869 -118.453021 216 179ft 0kts
07-Jul-19 14:15 34.015869 -118.453021 216 179ft 0kts
07-Jul-19 14:16 34.015869 -118.453021 216 179ft 0kts
07-Jul-19 14:17 34.015869 -118.453021 216 179ft 0kts
07-Jul-19 14:18 34.015869 -118.453021 216 179ft 0kts
07-Jul-19 14:19 34.015869 -118.453021 216 179ft 0kts
07-Jul-19 14:20 34.015869 -118.453021 216 179ft 0kts
07-Jul-19 14:21 34.015869 -118.453021 216 179ft 0kts
07-Jul-19 14:22 34.015869 -118.453021 216 179ft 0kts
07-Jul-19 14:23 34.015869 -118.453021 216 179ft 0kts
07-Jul-19 14:24 34.015869 -118.453021 216 179ft 0kts
07-Jul-19 14:25 34.015869 -118.453021 216 179ft 0kts
07-Jul-19 14:26 34.015869 -118.453021 216 179ft 0kts
07-Jul-19 14:27 34.015869 -118.453021 216 179ft 0kts
07-Jul-19 14:28 34.015869 -118.453021 216 179ft 0kts
07-Jul-19 14:29 34.015869 -118.453021 216 179ft 0kts
07-Jul-19 14:30 34.015869 -118.453021 216 179ft 0kts
07-Jul-19 14:31 34.015869 -118.453021 216 179ft 0kts
07-Jul-19 14:32 34.015869 -118.453021 216 179ft 0kts
07-Jul-19 14:33 34.015869 -118.453021 216 179ft 0kts
07-Jul-19 14:34 34.015869 -118.453021 216 179ft 0kts
07-Jul-19 14:35 34.015869 -118.453021 216 179ft 0kts
07-Jul-19 14:36 34.015793 -118.452745 93 179ft 4kts
07-Jul-19 14:37 34.018305 -118.449504 44 179ft 23kts
07-Jul-19 14:38 34.019562 -118.447732 124 179ft 0kts
07-Jul-19 14:39 34.019562 -118.447732 124 179ft 0kts
07-Jul-19 14:40 34.019562 -118.447732 124 179ft 0kts
07-Jul-19 14:41 34.019562 -118.447732 124 179ft 0kts
07-Jul-19 14:42 34.019562 -118.447732 124 179ft 0kts
07-Jul-19 14:43 34.019562 -118.447732 124 179ft 0kts
07-Jul-19 14:44 34.019562 -118.447732 124 179ft 0kts
07-Jul-19 14:45 34.019472 -118.447593 131 179ft 9kts
07-Jul-19 14:46 34.001647 -118.467384 221 870ft 141kts
07-Jul-19 14:47 33.990006 -118.507479 287 2461ft 140kts
07-Jul-19 14:48 33.994739 -118.553029 265 3969ft 138kts
07-Jul-19 14:49 33.991443 -118.598649 265 5367ft 136kts
07-Jul-19 14:50 33.986961 -118.647105 262 6022ft 169kts
07-Jul-19 14:51 34.015141 -118.678543 2 6015ft 181kts
07-Jul-19 14:52 34.065916 -118.675818 2 6011ft 183kts
07-Jul-19 14:53 34.116788 -118.673019 2 6011ft 183kts
07-Jul-19 14:54 34.167838 -118.670187 2 6011ft 183kts
07-Jul-19 14:55 34.218912 -118.667374 2 6011ft 183kts
07-Jul-19 14:56 34.269864 -118.664549 2 6011ft 183kts
07-Jul-19 14:57 34.319234 -118.661842 2 6534ft 160kts
07-Jul-19 14:58 34.359436 -118.659701 2 7919ft 130kts
07-Jul-19 14:59 34.394278 -118.657865 2 9184ft 124kts
07-Jul-19 15:00 34.429693 -118.656574 348 9968ft 147kts
07-Jul-19 15:01 34.472456 -118.676685 339 9960ft 174kts
07-Jul-19 15:02 34.516312 -118.702803 335 9957ft 177kts
07-Jul-19 15:03 34.561326 -118.727445 335 9957ft 177kts
07-Jul-19 15:04 34.606531 -118.752309 335 9957ft 177kts
07-Jul-19 15:05 34.650827 -118.776706 335 10099ft 173kts
07-Jul-19 15:06 34.695499 -118.801332 335 10096ft 177kts
07-Jul-19 15:07 34.740420 -118.826128 335 10096ft 177kts
07-Jul-19 15:08 34.785424 -118.850999 335 10096ft 177kts
07-Jul-19 15:09 34.833159 -118.861319 0 10096ft 177kts
07-Jul-19 15:10 34.882595 -118.861301 0 10096ft 177kts
07-Jul-19 15:11 34.928616 -118.861304 0 10096ft 177kts
07-Jul-19 15:12 34.978876 -118.859426 12 9730ft 190kts
07-Jul-19 15:13 35.029158 -118.844882 13 9313ft 174kts
07-Jul-19 15:14 35.075170 -118.831477 13 9317ft 168kts
07-Jul-19 15:15 35.120402 -118.831629 342 9317ft 165kts
07-Jul-19 15:16 35.164432 -118.848743 342 8871ft 158kts
07-Jul-19 15:17 35.201604 -118.863308 342 7684ft 125kts
07-Jul-19 15:18 35.234366 -118.876172 342 7279ft 114kts
07-Jul-19 15:19 35.268440 -118.882459 11 7118ft 138kts
07-Jul-19 15:20 35.305343 -118.874515 343 5639ft 128kts
07-Jul-19 15:21 35.318136 -118.909718 282 3990ft 113kts
07-Jul-19 15:22 35.338724 -118.939623 307 2469ft 124kts
07-Jul-19 15:23 35.360953 -118.968570 316 2452ft 115kts
07-Jul-19 15:24 35.385357 -118.997731 314 1852ft 126kts
07-Jul-19 15:26 35.408754 -119.025830 315 1143ft 114kts
07-Jul-19 15:27 35.431211 -119.053137 316 580ft 107kts
07-Jul-19 15:28 35.440283 -119.062671 2 510ft 0kts

Navigation Log

Ident Type
Flight plan parsing failed, navigation log unavailable